SCCF

El Loa Airport

Airport
ICAO code
SCCF
IATA Code
CJC
Summary
ICAO Region
CARSAM
ICAO Territory
Location

Calama, Antofagasta

Serving
Calama
Elevation
7543 ft
Coordinates
22° 29' 53" S , 68° 54' 13" W
KCC
BWk
Metar
Observation
SCCF 131500Z VRB02KT CAVOK 19/M12 Q1028
Station
CALAMA/EL LOA
Date/Time
2022-08-13 15:00:00
Wind speed
02 kts
Lowest cloud amount
clouds and visibility OK
Temperature
19°C
Dew point
-12°C
Humidity
11%
QNH
1028 hPa
Weather condition
n/a

Airport serving Calama in northern Chile.

Climatology

Cold desert climate (Köppen climate classification BWk)

Runways

Designator Length Width Surface Rops
10/28 2889 30 ASP No/No

Airport map

Aerial View

SKYbrary Partners:

Safety knowledge contributed by: